Time;durP1;ratioP1;P1;durP2;ratioP2;P2;SDS_P1;SDS_P2;PMS_P1;PMS_P2;Temp;Humidity;BMP_temperature;BMP_pressure;BME280_temperature;BME280_humidity;BME280_pressure;Samples;Min_cycle;Max_cycle;Signal;HPM_P1;HPM_P2
2021/12/18 00:00:46;;;;;;;8.90;6.40;;;6.40;99.90;;;;;;5013481;28;20034;-75
2021/12/18 00:03:12;;;;;;;12.38;6.57;;;6.40;99.90;;;;;;5013201;28;20026;-71
2021/12/18 00:05:38;;;;;;;10.40;6.60;;;6.40;99.90;;;;;;5013056;28;20368;-69
2021/12/18 00:08:03;;;;;;;9.82;6.50;;;6.30;99.90;;;;;;5013441;28;20083;-70
2021/12/18 00:10:29;;;;;;;7.88;5.65;;;6.30;99.90;;;;;;5014029;28;20097;-69
2021/12/18 00:12:55;;;;;;;9.68;6.32;;;6.30;99.90;;;;;;5013730;28;20034;-68
2021/12/18 00:15:22;;;;;;;10.98;6.78;;;6.40;99.90;;;;;;5013204;28;20029;-70
2021/12/18 00:17:48;;;;;;;11.35;7.20;;;6.30;99.90;;;;;;5013302;28;20494;-67
2021/12/18 00:20:15;;;;;;;16.02;7.03;;;6.40;99.90;;;;;;5010381;28;20034;-69
2021/12/18 00:22:42;;;;;;;9.73;6.47;;;6.30;99.90;;;;;;5013378;28;20056;-69
2021/12/18 00:25:08;;;;;;;11.77;7.05;;;6.30;99.90;;;;;;5012899;28;20357;-69
2021/12/18 00:27:34;;;;;;;11.55;6.80;;;6.30;99.90;;;;;;5012619;28;20053;-70
2021/12/18 00:30:00;;;;;;;14.07;7.47;;;6.30;99.90;;;;;;5012714;28;20483;-68
2021/12/18 00:32:26;;;;;;;11.77;6.95;;;6.20;99.90;;;;;;5012857;28;20523;-69
2021/12/18 00:34:51;;;;;;;11.90;6.57;;;6.30;99.90;;;;;;5012596;28;20105;-68
2021/12/18 00:37:17;;;;;;;9.68;6.75;;;6.30;99.90;;;;;;5011130;28;20368;-69
2021/12/18 00:39:54;;;;;;;8.95;6.55;;;6.30;99.90;;;;;;5012575;28;20387;-68
2021/12/18 00:42:43;;;;;;;12.85;6.22;;;6.30;99.90;;;;;;5012728;28;20050;-73
2021/12/18 00:45:14;;;;;;;8.18;5.93;;;6.30;99.90;;;;;;5013000;28;20022;-74
2021/12/18 00:47:41;;;;;;;11.43;7.25;;;6.30;99.90;;;;;;5011827;28;20026;-68
2021/12/18 00:50:11;;;;;;;9.52;7.10;;;6.20;99.90;;;;;;5012941;28;20131;-68
2021/12/18 00:52:37;;;;;;;11.32;7.95;;;6.20;99.90;;;;;;4996471;28;20026;-70
2021/12/18 00:55:04;;;;;;;9.75;6.88;;;6.20;99.90;;;;;;5013747;28;20037;-69
2021/12/18 00:57:30;;;;;;;11.57;7.10;;;6.20;99.90;;;;;;5012798;28;20450;-70
2021/12/18 01:00:00;;;;;;;10.70;7.15;;;6.20;99.90;;;;;;5015215;28;20038;-70
2021/12/18 01:02:28;;;;;;;10.13;6.50;;;6.10;99.90;;;;;;5018654;28;20375;-76
2021/12/18 01:04:55;;;;;;;9.50;6.57;;;6.10;99.90;;;;;;5019384;28;20053;-74
2021/12/18 01:07:21;;;;;;;11.88;7.15;;;6.20;99.90;;;;;;5018640;28;20021;-69
2021/12/18 01:10:03;;;;;;;14.43;7.57;;;6.20;99.90;;;;;;5019718;28;20376;-68
2021/12/18 01:12:38;;;;;;;10.57;6.65;;;6.20;99.90;;;;;;5020629;28;20075;-70
2021/12/18 01:15:15;;;;;;;13.18;8.18;;;6.20;99.90;;;;;;5019744;28;20030;-71
2021/12/18 01:23:10;;;;;;;10.02;6.90;;;6.10;99.90;;;;;;5016756;28;20121;-70
2021/12/18 01:25:36;;;;;;;14.23;8.50;;;6.10;99.90;;;;;;5015518;28;20084;-72
2021/12/18 01:28:02;;;;;;;11.48;7.45;;;6.20;99.90;;;;;;5015067;28;20057;-69
2021/12/18 01:30:28;;;;;;;11.60;7.47;;;6.10;99.90;;;;;;5015644;28;20073;-68
2021/12/18 01:32:55;;;;;;;11.02;7.40;;;6.10;99.90;;;;;;5017743;28;20030;-72
2021/12/18 01:35:21;;;;;;;11.70;7.57;;;6.10;99.90;;;;;;5019764;28;20026;-69
2021/12/18 01:37:49;;;;;;;13.90;7.60;;;6.10;99.90;;;;;;5015804;28;20033;-70
2021/12/18 01:40:15;;;;;;;12.50;8.05;;;6.10;99.90;;;;;;5013443;28;20029;-70
2021/12/18 01:53:07;;;;;;;14.05;9.10;;;6.20;99.90;;;;;;5016179;28;20129;-69
2021/12/18 01:55:35;;;;;;;12.38;8.30;;;6.10;99.90;;;;;;5014016;28;20125;-68
2021/12/18 01:58:02;;;;;;;15.85;9.27;;;6.10;99.90;;;;;;5015281;28;20029;-70
2021/12/18 02:00:31;;;;;;;18.15;9.45;;;6.10;99.90;;;;;;5015323;28;20092;-72
2021/12/18 02:02:57;;;;;;;18.55;9.85;;;6.10;99.90;;;;;;5014482;28;20049;-68
2021/12/18 02:05:22;;;;;;;17.70;10.63;;;6.20;99.90;;;;;;5013915;28;20065;-68
2021/12/18 02:07:48;;;;;;;16.13;10.00;;;6.20;99.90;;;;;;5015293;28;20388;-68
2021/12/18 02:10:20;;;;;;;17.17;10.57;;;6.10;99.90;;;;;;5015252;28;20121;-68
2021/12/18 02:20:49;;;;;;;17.13;10.13;;;6.20;99.90;;;;;;5014328;28;20507;-68
2021/12/18 02:23:15;;;;;;;15.05;9.90;;;6.10;99.90;;;;;;5014967;28;20068;-70
2021/12/18 02:25:44;;;;;;;16.52;10.32;;;6.10;99.90;;;;;;5014302;28;20057;-69
2021/12/18 02:28:19;;;;;;;16.27;9.07;;;6.10;99.90;;;;;;5013026;28;20450;-69
2021/12/18 02:30:46;;;;;;;17.98;10.00;;;6.20;99.90;;;;;;5014782;28;20468;-69
2021/12/18 02:33:12;;;;;;;16.70;10.63;;;6.20;99.90;;;;;;5015056;28;20033;-69
2021/12/18 02:35:48;;;;;;;15.07;10.13;;;6.20;99.90;;;;;;5014272;28;20034;-69
2021/12/18 02:38:29;;;;;;;19.02;10.38;;;6.10;99.90;;;;;;5014012;28;20120;-70
2021/12/18 02:41:41;;;;;;;18.65;11.10;;;6.10;99.90;;;;;;5015291;28;20084;-67
2021/12/18 02:43:45;;;;;;;17.63;10.18;;;6.10;99.90;;;;;;5012977;28;20117;-68
2021/12/18 02:46:17;;;;;;;17.00;9.93;;;6.00;99.90;;;;;;5031506;28;20498;-69
2021/12/18 02:48:42;;;;;;;17.00;10.50;;;5.90;99.90;;;;;;5014985;28;20058;-69
2021/12/18 02:51:10;;;;;;;16.42;9.85;;;6.10;99.90;;;;;;5014805;28;20077;-70
2021/12/18 02:53:40;;;;;;;15.57;10.70;;;6.10;99.90;;;;;;5014484;28;20032;-68
2021/12/18 02:56:08;;;;;;;16.48;9.80;;;6.10;99.90;;;;;;4997636;28;20490;-72
2021/12/18 02:58:40;;;;;;;16.10;10.65;;;6.10;99.90;;;;;;5014512;28;20030;-69
2021/12/18 03:01:08;;;;;;;16.98;9.73;;;6.20;99.90;;;;;;5013264;28;20037;-68
2021/12/18 03:03:37;;;;;;;20.08;10.82;;;6.20;99.90;;;;;;5012924;28;20030;-68
2021/12/18 03:08:52;;;;;;;22.65;12.00;;;6.10;99.90;;;;;;5015133;28;20033;-75
2021/12/18 03:25:00;;;;;;;17.25;10.75;;;6.10;99.90;;;;;;5014364;28;20030;-74
2021/12/18 03:27:26;;;;;;;18.20;11.15;;;6.10;99.90;;;;;;5012415;28;20096;-70
2021/12/18 03:29:52;;;;;;;15.85;10.38;;;6.20;99.90;;;;;;5013166;28;20129;-70
2021/12/18 03:32:18;;;;;;;16.25;10.00;;;6.10;99.90;;;;;;5012919;28;20105;-70
2021/12/18 03:34:44;;;;;;;15.25;10.23;;;6.10;99.90;;;;;;5014129;28;20033;-69
2021/12/18 03:37:10;;;;;;;17.20;10.77;;;6.10;99.90;;;;;;5014567;28;20036;-72
2021/12/18 03:39:36;;;;;;;21.92;10.18;;;6.20;99.90;;;;;;5013080;28;20108;-69
2021/12/18 03:42:06;;;;;;;21.67;12.68;;;6.10;99.90;;;;;;5014628;28;20455;-69
2021/12/18 03:44:33;;;;;;;16.30;10.27;;;6.10;99.90;;;;;;5013772;28;20079;-70
2021/12/18 03:46:59;;;;;;;16.83;11.20;;;6.10;99.90;;;;;;5013115;28;20025;-70
2021/12/18 03:49:25;;;;;;;25.77;12.02;;;6.00;99.90;;;;;;5014342;28;20033;-70
2021/12/18 03:51:51;;;;;;;18.88;11.63;;;6.10;99.90;;;;;;5013879;28;20033;-73
2021/12/18 03:54:17;;;;;;;17.67;10.98;;;6.10;99.90;;;;;;5014909;28;20026;-68
2021/12/18 03:56:43;;;;;;;19.02;11.10;;;6.10;99.90;;;;;;5014984;28;20459;-68
2021/12/18 03:59:09;;;;;;;18.70;11.00;;;6.10;99.90;;;;;;5014299;28;20030;-69
2021/12/18 04:01:35;;;;;;;21.33;12.40;;;6.10;99.90;;;;;;5013462;28;20034;-69
2021/12/18 04:04:00;;;;;;;19.98;12.45;;;6.20;99.90;;;;;;5013623;28;20491;-69
2021/12/18 04:06:28;;;;;;;17.85;11.63;;;6.10;99.90;;;;;;5013349;28;20519;-69
2021/12/18 04:08:54;;;;;;;19.13;11.88;;;6.20;99.90;;;;;;5013456;28;20054;-68
2021/12/18 04:11:20;;;;;;;20.88;12.20;;;6.20;99.90;;;;;;5012107;28;20061;-68
2021/12/18 04:13:47;;;;;;;16.75;11.07;;;6.20;99.90;;;;;;5011392;28;20030;-70
2021/12/18 04:16:13;;;;;;;18.15;10.88;;;6.10;99.90;;;;;;5013177;28;20065;-69
2021/12/18 04:18:40;;;;;;;17.75;10.57;;;6.20;99.90;;;;;;5012707;28;20124;-69
2021/12/18 04:21:06;;;;;;;18.50;10.82;;;6.30;99.90;;;;;;5012332;28;20124;-69
2021/12/18 04:23:32;;;;;;;17.98;10.65;;;6.20;99.90;;;;;;5012608;28;20158;-68
2021/12/18 04:25:58;;;;;;;18.38;11.55;;;6.30;99.90;;;;;;5013309;28;20030;-70
2021/12/18 04:28:24;;;;;;;18.95;11.93;;;6.20;99.90;;;;;;5013151;28;20499;-71
2021/12/18 04:30:50;;;;;;;17.90;12.38;;;6.20;99.90;;;;;;5011353;28;20069;-71
2021/12/18 04:33:16;;;;;;;17.08;11.85;;;6.20;99.90;;;;;;5012174;28;20025;-68
2021/12/18 04:35:42;;;;;;;18.85;11.45;;;6.20;99.90;;;;;;5017518;28;20038;-69
2021/12/18 04:38:08;;;;;;;18.77;10.98;;;6.20;99.90;;;;;;5019593;28;20398;-69
2021/12/18 04:40:35;;;;;;;16.42;11.50;;;6.30;99.90;;;;;;5018141;28;20113;-70
2021/12/18 04:43:01;;;;;;;18.33;12.02;;;6.30;99.90;;;;;;5020094;28;20022;-69
2021/12/18 04:45:27;;;;;;;17.35;11.32;;;6.20;99.90;;;;;;5020557;28;20064;-70
2021/12/18 04:47:53;;;;;;;17.65;11.88;;;6.20;99.90;;;;;;5022978;28;20060;-72
2021/12/18 04:50:20;;;;;;;17.38;11.73;;;6.20;99.90;;;;;;5019653;28;20555;-70
2021/12/18 04:52:45;;;;;;;17.73;11.07;;;6.20;99.90;;;;;;5017817;28;20053;-68
2021/12/18 04:55:11;;;;;;;17.27;11.13;;;6.20;99.90;;;;;;5019521;28;20069;-69
2021/12/18 04:57:37;;;;;;;15.25;11.15;;;6.30;99.90;;;;;;5018535;28;20021;-69
2021/12/18 05:00:05;;;;;;;16.05;10.68;;;6.40;99.90;;;;;;5019697;28;20065;-69
2021/12/18 05:02:40;;;;;;;20.75;11.77;;;6.40;99.90;;;;;;5017892;28;20137;-71
2021/12/18 05:05:08;;;;;;;20.45;10.93;;;6.40;99.90;;;;;;5018782;28;20029;-69
2021/12/18 05:07:34;;;;;;;16.55;10.20;;;6.30;99.90;;;;;;5019014;28;20026;-68
2021/12/18 05:10:00;;;;;;;17.05;11.43;;;6.40;99.90;;;;;;5019911;28;20038;-69
2021/12/18 05:12:26;;;;;;;18.45;11.48;;;6.40;99.90;;;;;;5020924;28;20053;-72
2021/12/18 05:14:52;;;;;;;17.20;11.88;;;6.40;99.90;;;;;;5019896;28;20025;-69
2021/12/18 05:17:17;;;;;;;17.42;11.73;;;6.40;99.90;;;;;;5019722;28;20483;-68
2021/12/18 05:19:43;;;;;;;15.93;10.70;;;6.40;99.90;;;;;;5017643;28;20032;-69
2021/12/18 05:22:09;;;;;;;16.05;10.25;;;6.40;99.90;;;;;;5018379;28;20383;-69
2021/12/18 05:24:35;;;;;;;17.08;11.23;;;6.40;99.90;;;;;;5019425;28;20026;-70
2021/12/18 05:27:01;;;;;;;16.30;10.70;;;6.50;99.90;;;;;;5019424;28;20045;-73
2021/12/18 05:29:27;;;;;;;14.73;9.63;;;6.50;99.90;;;;;;5019624;28;20499;-69
2021/12/18 05:31:52;;;;;;;17.30;11.02;;;6.40;99.90;;;;;;5019788;28;20061;-69
2021/12/18 05:34:23;;;;;;;17.05;10.98;;;6.40;99.90;;;;;;5020278;28;20054;-69
2021/12/18 05:37:14;;;;;;;16.33;10.98;;;6.30;99.90;;;;;;5019761;28;20030;-69
2021/12/18 05:39:36;;;;;;;15.18;10.48;;;6.40;99.90;;;;;;5019293;28;20042;-69
2021/12/18 05:42:02;;;;;;;15.18;10.60;;;6.30;99.90;;;;;;5021010;28;20037;-70
2021/12/18 05:44:28;;;;;;;22.35;11.43;;;6.20;99.90;;;;;;5022763;28;20032;-75
2021/12/18 05:46:55;;;;;;;17.20;11.13;;;6.10;99.90;;;;;;5020259;28;20026;-70
2021/12/18 05:49:21;;;;;;;17.73;11.98;;;6.20;99.90;;;;;;5020177;28;20029;-71
2021/12/18 05:51:47;;;;;;;16.65;11.10;;;6.30;99.90;;;;;;5018542;28;20034;-68
2021/12/18 05:54:14;;;;;;;18.38;9.90;;;6.30;99.90;;;;;;5018338;28;20451;-69
2021/12/18 05:56:40;;;;;;;19.63;11.40;;;6.30;99.90;;;;;;5016106;28;20026;-70
2021/12/18 05:59:06;;;;;;;19.00;12.48;;;6.30;99.90;;;;;;5016466;28;20096;-69
2021/12/18 06:01:32;;;;;;;19.25;10.82;;;6.40;99.90;;;;;;5016353;28;20475;-71
2021/12/18 06:03:58;;;;;;;17.90;11.68;;;6.30;99.90;;;;;;5014455;28;20084;-70
2021/12/18 06:06:25;;;;;;;23.50;12.15;;;6.40;99.90;;;;;;5016024;28;20030;-69
2021/12/18 06:08:51;;;;;;;17.77;11.32;;;6.30;99.90;;;;;;5015193;28;20360;-70
2021/12/18 06:11:20;;;;;;;17.08;11.38;;;6.20;99.90;;;;;;5014326;28;20502;-69
2021/12/18 06:13:51;;;;;;;17.45;11.93;;;6.20;99.90;;;;;;5016653;28;20037;-70
2021/12/18 06:16:19;;;;;;;16.73;11.10;;;6.20;99.90;;;;;;5017585;28;20022;-69
2021/12/18 06:18:47;;;;;;;16.73;11.57;;;6.10;99.90;;;;;;5015457;28;20022;-69
2021/12/18 06:21:15;;;;;;;15.48;10.38;;;6.20;99.90;;;;;;5015354;28;20026;-69
2021/12/18 06:23:41;;;;;;;16.58;11.38;;;6.20;99.90;;;;;;5013346;28;20485;-71
2021/12/18 06:26:07;;;;;;;21.55;11.95;;;6.30;99.90;;;;;;5013871;28;20033;-70
2021/12/18 06:28:33;;;;;;;16.20;10.40;;;6.30;99.90;;;;;;5014238;28;20050;-68
2021/12/18 06:31:00;;;;;;;20.98;12.20;;;6.30;99.90;;;;;;5015282;28;20041;-69
2021/12/18 06:33:26;;;;;;;16.52;10.70;;;6.30;99.90;;;;;;5015049;28;20109;-69
2021/12/18 06:35:52;;;;;;;17.27;11.43;;;6.30;99.90;;;;;;5014419;28;20065;-71
2021/12/18 06:38:17;;;;;;;18.83;10.88;;;6.30;99.90;;;;;;5015108;28;20387;-73
2021/12/18 06:40:43;;;;;;;17.92;11.05;;;6.40;99.90;;;;;;5016896;28;20038;-69
2021/12/18 06:43:09;;;;;;;19.13;12.25;;;6.40;99.90;;;;;;5016546;28;20065;-70
2021/12/18 06:45:35;;;;;;;22.20;11.02;;;6.40;99.90;;;;;;5013325;28;20125;-70
2021/12/18 06:48:01;;;;;;;19.55;12.02;;;6.40;99.90;;;;;;5014987;28;20030;-72
2021/12/18 06:50:27;;;;;;;19.23;11.48;;;6.40;99.90;;;;;;5014496;28;20040;-70
2021/12/18 06:52:52;;;;;;;17.80;11.90;;;6.40;99.90;;;;;;5014378;28;20045;-69
2021/12/18 06:55:18;;;;;;;18.77;11.98;;;6.40;99.90;;;;;;5013772;28;20105;-69
2021/12/18 06:57:44;;;;;;;17.92;11.98;;;6.30;99.90;;;;;;5014118;28;20030;-69
2021/12/18 07:00:12;;;;;;;21.63;12.10;;;6.30;99.90;;;;;;5015498;28;20040;-73
2021/12/18 07:02:38;;;;;;;18.60;11.25;;;6.30;99.90;;;;;;5015009;28;20029;-74
2021/12/18 07:05:05;;;;;;;19.88;12.00;;;6.20;99.90;;;;;;5014610;28;20029;-69
2021/12/18 07:07:30;;;;;;;18.58;11.35;;;6.00;99.90;;;;;;5016610;28;20034;-70
2021/12/18 07:09:56;;;;;;;17.08;11.98;;;6.00;99.90;;;;;;5016445;28;20482;-72
2021/12/18 07:12:22;;;;;;;17.73;11.95;;;6.00;99.90;;;;;;5014767;28;20037;-69
2021/12/18 07:14:47;;;;;;;20.65;12.27;;;6.10;99.90;;;;;;5016458;28;20452;-72
2021/12/18 07:17:13;;;;;;;18.58;12.10;;;6.20;99.90;;;;;;5016806;28;20030;-69
2021/12/18 07:19:39;;;;;;;16.85;11.00;;;6.10;99.90;;;;;;5013714;28;20054;-69
2021/12/18 07:22:05;;;;;;;19.77;11.10;;;6.00;99.90;;;;;;5015095;28;20490;-71
2021/12/18 07:24:30;;;;;;;17.38;11.63;;;6.00;99.90;;;;;;5014117;28;20488;-68
2021/12/18 07:26:57;;;;;;;17.95;12.00;;;6.00;99.90;;;;;;5011873;28;20022;-69
2021/12/18 07:29:22;;;;;;;17.95;11.50;;;6.00;99.90;;;;;;5013894;28;20064;-70
2021/12/18 07:31:49;;;;;;;17.73;10.93;;;5.80;99.90;;;;;;5013901;28;20029;-70
2021/12/18 07:34:15;;;;;;;19.70;11.40;;;5.70;99.90;;;;;;5013628;28;20053;-70
2021/12/18 07:36:40;;;;;;;18.48;11.63;;;5.80;99.90;;;;;;5013209;28;20127;-69
2021/12/18 07:39:07;;;;;;;19.30;12.07;;;5.90;99.90;;;;;;5013565;28;20026;-71
2021/12/18 07:41:33;;;;;;;17.00;11.60;;;6.00;99.90;;;;;;5014169;28;20033;-69
2021/12/18 07:43:58;;;;;;;19.38;12.35;;;6.00;99.90;;;;;;5014167;28;20361;-69
2021/12/18 07:46:24;;;;;;;20.23;12.07;;;5.90;99.90;;;;;;5013302;28;20038;-72
2021/12/18 07:48:50;;;;;;;15.52;11.35;;;5.90;99.90;;;;;;5015458;28;20076;-72
2021/12/18 07:51:16;;;;;;;16.20;11.65;;;5.70;99.90;;;;;;5018435;28;20026;-73
2021/12/18 07:53:42;;;;;;;18.52;12.82;;;5.70;99.90;;;;;;5015637;28;20033;-70
2021/12/18 07:56:09;;;;;;;16.90;10.93;;;5.80;99.90;;;;;;5012976;28;20483;-69
2021/12/18 07:58:36;;;;;;;16.67;9.50;;;5.90;99.90;;;;;;5013494;28;20033;-69
2021/12/18 08:01:03;;;;;;;19.95;11.60;;;6.00;99.90;;;;;;5011919;28;20065;-69
2021/12/18 08:03:29;;;;;;;14.65;10.13;;;5.90;99.90;;;;;;5013983;28;20026;-70
2021/12/18 08:05:55;;;;;;;15.80;10.00;;;5.90;99.90;;;;;;5012486;28;20468;-69
2021/12/18 08:08:21;;;;;;;14.30;10.30;;;6.00;99.90;;;;;;5014365;28;20025;-71
2021/12/18 08:10:47;;;;;;;19.08;10.55;;;6.00;99.90;;;;;;5014897;28;20038;-69
2021/12/18 08:13:13;;;;;;;14.25;9.43;;;5.80;99.90;;;;;;5014465;28;20026;-70
2021/12/18 08:15:39;;;;;;;12.35;9.18;;;5.80;99.90;;;;;;5013434;28;20482;-69
2021/12/18 08:18:07;;;;;;;14.48;8.90;;;5.90;99.90;;;;;;5013176;28;20026;-68
2021/12/18 08:20:37;;;;;;;14.38;9.60;;;6.00;99.90;;;;;;4996031;28;20037;-69
2021/12/18 08:23:03;;;;;;;11.88;9.30;;;5.90;99.90;;;;;;5012030;28;20057;-69
2021/12/18 08:25:29;;;;;;;15.32;8.90;;;5.80;99.90;;;;;;5013580;28;20549;-70
2021/12/18 08:27:58;;;;;;;14.88;9.90;;;5.80;99.90;;;;;;5013757;28;20130;-69
2021/12/18 08:30:24;;;;;;;14.98;9.98;;;5.90;99.90;;;;;;5014211;28;20081;-69
2021/12/18 08:32:50;;;;;;;14.90;9.50;;;6.00;99.90;;;;;;5014642;28;20360;-69
2021/12/18 08:35:16;;;;;;;23.30;9.50;;;6.00;99.90;;;;;;5017967;28;20101;-71
2021/12/18 08:37:42;;;;;;;14.00;9.20;;;6.00;99.90;;;;;;5018083;28;20041;-71
2021/12/18 08:40:09;;;;;;;13.63;8.27;;;6.00;99.90;;;;;;5017841;28;20060;-74
2021/12/18 08:42:35;;;;;;;18.25;10.35;;;6.00;99.90;;;;;;5017776;28;20032;-69
2021/12/18 08:45:00;;;;;;;15.65;9.50;;;5.90;99.90;;;;;;5017247;28;20468;-71
2021/12/18 08:47:26;;;;;;;18.25;9.27;;;5.90;99.90;;;;;;5014660;28;20037;-70
2021/12/18 08:49:52;;;;;;;13.68;9.40;;;5.90;99.90;;;;;;5013455;28;20029;-71
2021/12/18 08:52:18;;;;;;;13.73;9.50;;;5.70;99.90;;;;;;5013940;28;20464;-70
2021/12/18 08:54:44;;;;;;;17.60;10.43;;;5.90;99.90;;;;;;5013279;28;20033;-71
2021/12/18 08:57:10;;;;;;;16.20;10.18;;;6.00;99.90;;;;;;5012448;28;20033;-71
2021/12/18 08:59:37;;;;;;;16.38;9.43;;;6.20;99.90;;;;;;5013802;28;20026;-72
2021/12/18 09:02:04;;;;;;;15.75;9.45;;;6.20;99.90;;;;;;5012140;28;20950;-72
2021/12/18 09:04:32;;;;;;;14.52;9.85;;;6.20;99.90;;;;;;5013472;28;20026;-70
2021/12/18 09:06:57;;;;;;;17.17;10.77;;;6.20;99.90;;;;;;5011814;28;20029;-72
2021/12/18 09:09:23;;;;;;;20.75;10.75;;;6.20;99.90;;;;;;5013307;28;20030;-74
2021/12/18 09:11:49;;;;;;;14.75;9.85;;;6.40;99.90;;;;;;5012711;28;20139;-70
2021/12/18 09:14:15;;;;;;;16.58;11.00;;;6.50;99.90;;;;;;5013077;28;20017;-69
2021/12/18 09:16:40;;;;;;;15.35;10.70;;;6.40;99.90;;;;;;5011524;28;20029;-71
2021/12/18 09:19:06;;;;;;;13.02;9.32;;;6.40;99.90;;;;;;5012291;28;20080;-75
2021/12/18 09:21:32;;;;;;;16.10;10.40;;;6.40;99.90;;;;;;5014323;28;20036;-69
2021/12/18 09:23:58;;;;;;;15.43;10.60;;;6.40;99.90;;;;;;5014569;28;20172;-69
2021/12/18 09:26:23;;;;;;;16.27;10.63;;;6.50;99.90;;;;;;5016586;28;20096;-70
2021/12/18 09:28:49;;;;;;;16.35;9.88;;;6.60;99.90;;;;;;5015759;28;20463;-69
2021/12/18 09:31:15;;;;;;;17.77;12.07;;;6.60;99.90;;;;;;5016484;28;20040;-69
2021/12/18 09:33:41;;;;;;;19.42;11.80;;;6.60;99.90;;;;;;5017010;28;20041;-70
2021/12/18 09:36:06;;;;;;;16.38;10.43;;;6.50;99.90;;;;;;5016813;28;20026;-75
2021/12/18 09:38:32;;;;;;;19.90;11.65;;;6.40;99.90;;;;;;5018448;28;20026;-71
2021/12/18 09:41:02;;;;;;;14.98;11.10;;;6.10;99.90;;;;;;5017562;28;20041;-78
2021/12/18 09:43:29;;;;;;;17.52;10.68;;;6.30;99.90;;;;;;5017900;28;20053;-73
2021/12/18 09:46:05;;;;;;;17.15;10.73;;;6.40;99.90;;;;;;5016544;28;20076;-71
2021/12/18 09:48:31;;;;;;;19.65;11.48;;;6.40;99.90;;;;;;5017303;28;20025;-69
2021/12/18 09:50:58;;;;;;;13.73;9.55;;;6.40;99.90;;;;;;5016098;28;20030;-70
2021/12/18 09:53:24;;;;;;;11.30;8.25;;;6.30;99.90;;;;;;5016495;28;20108;-72
2021/12/18 09:55:51;;;;;;;16.05;10.52;;;6.40;99.90;;;;;;5016348;28;20030;-73
2021/12/18 09:58:16;;;;;;;18.65;10.77;;;6.40;99.90;;;;;;5016767;28;20480;-72
2021/12/18 10:00:42;;;;;;;13.52;9.82;;;6.50;99.90;;;;;;5015767;28;20045;-69
2021/12/18 10:03:08;;;;;;;11.85;8.65;;;6.50;99.90;;;;;;5015213;28;20034;-69
2021/12/18 10:05:35;;;;;;;13.68;9.35;;;6.70;99.90;;;;;;5015346;28;20026;-71
2021/12/18 10:08:21;;;;;;;13.02;8.43;;;6.70;99.90;;;;;;5016652;28;20030;-71
2021/12/18 10:11:07;;;;;;;12.45;7.95;;;6.60;99.90;;;;;;5016739;28;20391;-74
2021/12/18 10:13:50;;;;;;;13.90;9.27;;;6.40;99.90;;;;;;5015982;28;20034;-70
2021/12/18 10:16:18;;;;;;;14.93;10.10;;;6.40;99.90;;;;;;5014034;28;20026;-69
2021/12/18 10:18:44;;;;;;;13.52;8.73;;;6.40;99.90;;;;;;5014848;28;20030;-71
2021/12/18 10:21:13;;;;;;;14.73;8.05;;;6.60;99.90;;;;;;5016238;28;20030;-70
2021/12/18 10:23:42;;;;;;;18.00;7.60;;;6.70;99.90;;;;;;5018188;28;20050;-71
2021/12/18 10:26:27;;;;;;;13.00;7.38;;;6.80;99.90;;;;;;5016737;28;20271;-70
2021/12/18 10:28:52;;;;;;;11.57;8.27;;;6.80;99.90;;;;;;5012346;28;20064;-71
2021/12/18 10:31:41;;;;;;;14.80;8.38;;;6.70;99.90;;;;;;5012542;28;20045;-71
2021/12/18 10:34:33;;;;;;;13.70;7.97;;;6.70;99.90;;;;;;5013130;28;20088;-71
2021/12/18 10:37:20;;;;;;;11.68;7.45;;;6.70;99.90;;;;;;5009284;28;20034;-72
2021/12/18 10:39:55;;;;;;;8.43;5.32;;;6.80;99.90;;;;;;5029379;28;20372;-71
2021/12/18 10:42:40;;;;;;;9.68;6.47;;;6.70;99.90;;;;;;5014161;28;20026;-70
2021/12/18 10:45:06;;;;;;;9.15;6.95;;;6.60;99.90;;;;;;5014339;28;20030;-69
2021/12/18 10:47:56;;;;;;;12.90;7.57;;;6.70;99.90;;;;;;5013578;28;20026;-70
2021/12/18 10:50:28;;;;;;;14.43;7.22;;;6.70;99.90;;;;;;5014592;28;20041;-70
2021/12/18 10:53:23;;;;;;;10.38;6.90;;;6.70;99.90;;;;;;5013952;28;20026;-71
2021/12/18 10:55:51;;;;;;;12.18;6.78;;;6.70;99.90;;;;;;5012932;28;20026;-74
2021/12/18 10:58:34;;;;;;;12.68;7.03;;;6.50;99.90;;;;;;5014964;28;20460;-66
2021/12/18 11:01:10;;;;;;;11.65;7.93;;;6.60;99.90;;;;;;5012759;28;20038;-70
2021/12/18 11:03:36;;;;;;;9.43;6.35;;;6.90;99.90;;;;;;5014978;28;20571;-72
2021/12/18 11:06:10;;;;;;;11.20;6.82;;;6.90;99.90;;;;;;5012591;28;20026;-71
2021/12/18 11:09:06;;;;;;;9.52;5.55;;;6.60;99.90;;;;;;5013123;28;20026;-69
2021/12/18 11:14:24;;;;;;;11.30;7.13;;;6.30;99.90;;;;;;5008852;28;20037;-72
2021/12/18 11:16:53;;;;;;;14.48;7.82;;;6.30;99.90;;;;;;5009030;28;20053;-71
2021/12/18 11:19:22;;;;;;;11.70;7.28;;;6.40;99.90;;;;;;5008210;28;20030;-70
2021/12/18 11:21:54;;;;;;;13.00;7.80;;;6.20;99.90;;;;;;5011991;28;20073;-70
2021/12/18 11:24:21;;;;;;;13.45;7.53;;;6.60;99.90;;;;;;4995316;28;20041;-72
2021/12/18 11:27:17;;;;;;;10.35;7.05;;;6.30;99.90;;;;;;5013368;28;20113;-70
2021/12/18 11:30:02;;;;;;;13.82;7.82;;;6.30;99.90;;;;;;5009899;28;20054;-71
2021/12/18 11:32:30;;;;;;;13.35;9.40;;;5.90;99.90;;;;;;4992907;28;20045;-71
2021/12/18 11:34:59;;;;;;;14.23;8.43;;;6.00;99.90;;;;;;4992180;28;20550;-71
2021/12/18 11:37:27;;;;;;;19.65;9.73;;;6.30;99.90;;;;;;4994152;28;20029;-72
2021/12/18 11:39:57;;;;;;;12.98;8.27;;;6.50;99.90;;;;;;4993684;28;20131;-71
2021/12/18 11:42:31;;;;;;;12.90;7.63;;;6.20;99.90;;;;;;4994081;28;20037;-69
2021/12/18 11:44:59;;;;;;;15.85;7.45;;;6.20;99.90;;;;;;4991716;28;20026;-69
2021/12/18 11:47:44;;;;;;;11.32;6.65;;;6.20;99.90;;;;;;4993242;28;20055;-71
2021/12/18 11:50:19;;;;;;;13.73;6.97;;;6.20;99.90;;;;;;4993581;28;20037;-69
2021/12/18 11:53:26;;;;;;;10.90;6.13;;;6.20;99.90;;;;;;4993399;28;20133;-69
2021/12/18 11:55:52;;;;;;;9.23;6.07;;;6.20;99.90;;;;;;4993579;28;20085;-72
2021/12/18 11:58:30;;;;;;;10.70;6.53;;;6.20;99.90;;;;;;4993794;28;20031;-69
2021/12/18 12:01:00;;;;;;;10.90;7.00;;;6.40;99.90;;;;;;4992365;28;20074;-68
2021/12/18 12:03:28;;;;;;;10.50;6.22;;;6.40;99.90;;;;;;4992637;28;20455;-69
2021/12/18 12:05:55;;;;;;;8.07;5.25;;;6.50;99.90;;;;;;4993114;28;20027;-69
2021/12/18 12:08:33;;;;;;;8.88;4.97;;;6.50;99.90;;;;;;5008678;28;20029;-69
2021/12/18 12:11:23;;;;;;;8.57;4.90;;;6.40;99.90;;;;;;4992208;28;20046;-70
2021/12/18 12:14:16;;;;;;;15.77;5.18;;;6.40;99.90;;;;;;4994081;28;20027;-69
2021/12/18 12:16:44;;;;;;;13.75;5.03;;;6.60;99.90;;;;;;4994248;28;20039;-68
2021/12/18 12:19:19;;;;;;;8.38;4.72;;;6.30;99.90;;;;;;4993130;28;20019;-70
2021/12/18 12:21:52;;;;;;;9.05;4.78;;;6.40;99.90;;;;;;4992692;28;20069;-69
2021/12/18 12:24:20;;;;;;;8.00;5.20;;;6.50;99.90;;;;;;4993896;28;20029;-70
2021/12/18 12:26:47;;;;;;;11.13;5.10;;;6.30;99.90;;;;;;5008822;28;20166;-69
2021/12/18 12:29:15;;;;;;;7.55;4.78;;;6.30;99.90;;;;;;4991400;28;20069;-69
2021/12/18 12:31:58;;;;;;;7.32;4.32;;;6.40;99.90;;;;;;5008782;28;20369;-70
2021/12/18 12:34:25;;;;;;;7.78;4.45;;;6.30;99.90;;;;;;4993820;28;20073;-73
2021/12/18 12:36:58;;;;;;;12.27;5.10;;;6.20;99.90;;;;;;4993856;28;20464;-68
2021/12/18 12:39:25;;;;;;;10.27;3.70;;;6.50;99.90;;;;;;4977659;28;20065;-69
2021/12/18 12:41:52;;;;;;;5.47;3.58;;;6.50;99.90;;;;;;4992785;28;20054;-70
2021/12/18 12:44:32;;;;;;;8.68;4.90;;;6.40;99.90;;;;;;4993438;28;20427;-70
2021/12/18 12:47:18;;;;;;;9.23;4.15;;;6.60;99.90;;;;;;4993572;28;20030;-70
2021/12/18 12:49:50;;;;;;;11.10;6.40;;;6.60;99.90;;;;;;4993924;28;20376;-71
2021/12/18 12:52:20;;;;;;;7.57;4.80;;;6.80;99.90;;;;;;4991919;28;20039;-72
2021/12/18 12:54:49;;;;;;;11.55;4.60;;;6.80;99.90;;;;;;4993090;28;20383;-74
2021/12/18 12:57:25;;;;;;;9.10;3.85;;;7.00;99.90;;;;;;4997093;28;20553;-71
2021/12/18 13:00:14;;;;;;;8.90;3.80;;;7.10;99.90;;;;;;5002112;28;20116;-71
2021/12/18 13:02:52;;;;;;;7.82;3.60;;;7.10;99.90;;;;;;4996587;28;20030;-70
2021/12/18 13:05:18;;;;;;;6.80;3.28;;;7.10;99.90;;;;;;5012229;28;20026;-74
2021/12/18 13:07:50;;;;;;;5.00;3.30;;;7.20;99.90;;;;;;4996055;28;20483;-70
2021/12/18 13:10:26;;;;;;;4.78;2.85;;;7.20;99.90;;;;;;4996210;28;20345;-69
2021/12/18 13:12:56;;;;;;;10.60;3.60;;;7.20;99.90;;;;;;5010487;28;20494;-68
2021/12/18 13:15:23;;;;;;;6.80;3.92;;;7.10;99.90;;;;;;5015138;28;20030;-71
2021/12/18 13:18:05;;;;;;;4.57;3.35;;;7.10;99.90;;;;;;5016552;28;20092;-68
2021/12/18 13:20:47;;;;;;;6.82;4.35;;;7.00;99.90;;;;;;5015562;28;20464;-70
2021/12/18 13:23:18;;;;;;;16.40;5.43;;;7.00;99.90;;;;;;5014614;28;20037;-72
2021/12/18 13:26:02;;;;;;;10.93;4.72;;;7.10;99.90;;;;;;5016575;28;20084;-70
2021/12/18 13:28:27;;;;;;;4.22;2.65;;;7.20;99.90;;;;;;5016280;28;20054;-72
2021/12/18 13:30:54;;;;;;;5.75;2.83;;;7.20;99.90;;;;;;5015223;28;20042;-68
2021/12/18 13:33:28;;;;;;;7.57;2.30;;;7.20;99.90;;;;;;5015110;28;20034;-74
2021/12/18 13:36:03;;;;;;;6.40;3.30;;;9.90;99.90;;;;;;5010546;28;20104;-72